Time;durP1;ratioP1;P1;durP2;ratioP2;P2;SDS_P1;SDS_P2;PMS_P1;PMS_P2;Temp;Humidity;BMP_temperature;BMP_pressure;BME280_temperature;BME280_humidity;BME280_pressure;Samples;Min_cycle;Max_cycle;Signal;HPM_P1;HPM_P2
2022/04/01 00:00:58;;;;;;;0.90;0.90;;;;;;;;;;6183148;23;20178;-84
2022/04/01 00:03:28;;;;;;;0.80;0.80;;;;;;;;;;6158813;23;20197;-85
2022/04/01 00:05:56;;;;;;;0.90;0.90;;;;;;;;;;6158170;23;20245;-82
2022/04/01 00:08:24;;;;;;;0.90;0.90;;;;;;;;;;6158424;23;20172;-82
2022/04/01 00:10:53;;;;;;;0.80;0.80;;;;;;;;;;6185807;23;20185;-82
2022/04/01 00:13:21;;;;;;;0.90;0.90;;;;;;;;;;6185853;23;20182;-82
2022/04/01 00:15:50;;;;;;;0.90;0.90;;;;;;;;;;6178976;23;20210;-83
2022/04/01 00:18:18;;;;;;;0.90;0.90;;;;;;;;;;6185477;23;20220;-82
2022/04/01 00:20:48;;;;;;;0.90;0.90;;;;;;;;;;6186806;23;20273;-83
2022/04/01 00:23:16;;;;;;;2.00;1.90;;;;;;;;;;6160289;23;20180;-83
2022/04/01 00:25:45;;;;;;;0.90;0.90;;;;;;;;;;6160413;23;20189;-83
2022/04/01 00:28:14;;;;;;;0.90;0.90;;;;;;;;;;6160717;23;20186;-83
2022/04/01 00:30:43;;;;;;;0.90;0.90;;;;;;;;;;6186450;23;20168;-83
2022/04/01 00:33:14;;;;;;;0.87;0.87;;;;;;;;;;6160308;23;20189;-83
2022/04/01 00:35:43;;;;;;;0.90;0.90;;;;;;;;;;6160261;23;20197;-83
2022/04/01 00:38:13;;;;;;;0.90;0.90;;;;;;;;;;6186318;23;20194;-83
2022/04/01 00:40:42;;;;;;;1.47;1.47;;;;;;;;;;6160693;23;20173;-83
2022/04/01 00:43:11;;;;;;;0.90;0.90;;;;;;;;;;6186684;23;20181;-85
2022/04/01 00:45:39;;;;;;;0.90;0.90;;;;;;;;;;6186680;23;20179;-83
2022/04/01 00:48:07;;;;;;;0.90;0.90;;;;;;;;;;6185206;23;20171;-83
2022/04/01 00:50:37;;;;;;;0.90;0.90;;;;;;;;;;6160195;23;20181;-83
2022/04/01 00:53:05;;;;;;;0.90;0.90;;;;;;;;;;6185330;23;20179;-83
2022/04/01 00:55:35;;;;;;;1.10;1.10;;;;;;;;;;6184740;23;20186;-83
2022/04/01 00:58:05;;;;;;;0.97;0.97;;;;;;;;;;6160238;23;20183;-83
2022/04/01 01:00:35;;;;;;;0.90;0.90;;;;;;;;;;6160511;23;20191;-83
2022/04/01 01:03:04;;;;;;;0.90;0.90;;;;;;;;;;6159648;23;20208;-83
2022/04/01 01:05:33;;;;;;;0.90;0.90;;;;;;;;;;6184863;23;20181;-83
2022/04/01 01:08:05;;;;;;;0.90;0.90;;;;;;;;;;6160149;23;20246;-83
2022/04/01 01:10:34;;;;;;;1.00;1.00;;;;;;;;;;6160074;23;20201;-83
2022/04/01 01:13:04;;;;;;;0.90;0.90;;;;;;;;;;6160270;23;20182;-83
2022/04/01 01:15:32;;;;;;;0.90;0.90;;;;;;;;;;6184433;23;20204;-83
2022/04/01 01:18:01;;;;;;;0.90;0.90;;;;;;;;;;6184637;23;20223;-83
2022/04/01 01:20:29;;;;;;;0.90;0.90;;;;;;;;;;6185098;23;20181;-83
2022/04/01 01:22:57;;;;;;;0.90;0.90;;;;;;;;;;6185898;23;20177;-83
2022/04/01 01:25:27;;;;;;;0.90;0.90;;;;;;;;;;6184760;23;20215;-83
2022/04/01 01:27:56;;;;;;;1.00;1.00;;;;;;;;;;6159643;23;20185;-83
2022/04/01 01:30:24;;;;;;;1.00;1.00;;;;;;;;;;6160008;23;20177;-83
2022/04/01 01:32:53;;;;;;;0.90;0.90;;;;;;;;;;6159818;23;20177;-83
2022/04/01 01:35:22;;;;;;;0.90;0.90;;;;;;;;;;6185874;23;20198;-84
2022/04/01 01:37:50;;;;;;;0.93;0.93;;;;;;;;;;6185762;23;20173;-83
2022/04/01 01:40:18;;;;;;;0.90;0.90;;;;;;;;;;6159736;23;20197;-83
2022/04/01 01:42:48;;;;;;;0.90;0.90;;;;;;;;;;6159672;23;20177;-83
2022/04/01 01:45:19;;;;;;;0.80;0.80;;;;;;;;;;6184946;23;20269;-83
2022/04/01 01:47:47;;;;;;;1.00;1.00;;;;;;;;;;6184476;23;20175;-83
2022/04/01 01:55:48;;;;;;;0.90;0.90;;;;;;;;;;6159752;23;20177;-83
2022/04/01 01:58:18;;;;;;;1.00;1.00;;;;;;;;;;6185532;23;20561;-84
2022/04/01 02:00:46;;;;;;;0.90;0.90;;;;;;;;;;6185985;23;20178;-84
2022/04/01 02:03:15;;;;;;;0.90;0.90;;;;;;;;;;6185661;23;20200;-84
2022/04/01 02:05:43;;;;;;;1.00;1.00;;;;;;;;;;6159678;23;20179;-83
2022/04/01 02:08:12;;;;;;;1.00;1.00;;;;;;;;;;6159174;23;20196;-83
2022/04/01 02:10:41;;;;;;;1.00;1.00;;;;;;;;;;6185858;23;20173;-83
2022/04/01 02:13:09;;;;;;;1.00;1.00;;;;;;;;;;6185330;23;20184;-83
2022/04/01 02:15:39;;;;;;;1.00;1.00;;;;;;;;;;6137923;23;20210;-83
2022/04/01 02:18:07;;;;;;;0.90;0.90;;;;;;;;;;6154253;23;20180;-83
2022/04/01 02:20:36;;;;;;;0.90;0.90;;;;;;;;;;6154324;23;20229;-83
2022/04/01 02:23:05;;;;;;;0.90;0.90;;;;;;;;;;6154325;23;20180;-83
2022/04/01 02:25:33;;;;;;;0.90;0.90;;;;;;;;;;6129761;23;20177;-83
2022/04/01 02:28:02;;;;;;;1.00;1.00;;;;;;;;;;6154293;23;20241;-83
2022/04/01 02:30:30;;;;;;;0.90;0.90;;;;;;;;;;6155946;23;20169;-83
2022/04/01 02:33:00;;;;;;;1.00;1.00;;;;;;;;;;6129623;23;20183;-83
2022/04/01 02:35:29;;;;;;;0.90;0.90;;;;;;;;;;6155323;23;20202;-83
2022/04/01 02:37:57;;;;;;;0.90;0.90;;;;;;;;;;6154443;23;20235;-83
2022/04/01 02:40:26;;;;;;;0.90;0.90;;;;;;;;;;6155349;23;20189;-83
2022/04/01 02:42:54;;;;;;;0.90;0.90;;;;;;;;;;6154719;23;20188;-83
2022/04/01 02:45:24;;;;;;;0.90;0.90;;;;;;;;;;6154182;23;20175;-83
2022/04/01 02:47:52;;;;;;;0.90;0.90;;;;;;;;;;6154204;23;20204;-83
2022/04/01 02:50:22;;;;;;;0.90;0.90;;;;;;;;;;6154249;23;20195;-83
2022/04/01 02:52:50;;;;;;;0.90;0.90;;;;;;;;;;6155435;23;20178;-83
2022/04/01 02:55:19;;;;;;;0.87;0.87;;;;;;;;;;6154195;23;20178;-84
2022/04/01 02:57:47;;;;;;;3.17;3.00;;;;;;;;;;6155138;23;20178;-83
2022/04/01 03:00:21;;;;;;;0.90;0.90;;;;;;;;;;6129611;23;20215;-83
2022/04/01 03:02:50;;;;;;;0.90;0.90;;;;;;;;;;6154037;23;20205;-83
2022/04/01 03:05:19;;;;;;;0.90;0.90;;;;;;;;;;6154094;23;20186;-83
2022/04/01 03:07:49;;;;;;;0.80;0.80;;;;;;;;;;6153873;23;20208;-83
2022/04/01 03:10:22;;;;;;;1.00;1.00;;;;;;;;;;6155521;23;20196;-83
2022/04/01 03:12:50;;;;;;;1.00;1.00;;;;;;;;;;6154240;23;20174;-83
2022/04/01 03:15:19;;;;;;;0.90;0.90;;;;;;;;;;6155207;23;20276;-83
2022/04/01 03:17:48;;;;;;;0.90;0.90;;;;;;;;;;6155585;23;20177;-83
2022/04/01 03:20:16;;;;;;;0.90;0.90;;;;;;;;;;6153690;23;20194;-83
2022/04/01 03:22:45;;;;;;;0.90;0.90;;;;;;;;;;6155133;23;20209;-83
2022/04/01 03:25:15;;;;;;;0.90;0.90;;;;;;;;;;6129201;23;20177;-83
2022/04/01 03:27:44;;;;;;;0.90;0.90;;;;;;;;;;6153876;23;20185;-83
2022/04/01 03:30:13;;;;;;;0.90;0.90;;;;;;;;;;6155253;23;20186;-83
2022/04/01 03:32:42;;;;;;;1.00;1.00;;;;;;;;;;6154224;23;20186;-83
2022/04/01 03:35:13;;;;;;;0.90;0.90;;;;;;;;;;6129457;23;20182;-83
2022/04/01 03:37:41;;;;;;;0.90;0.90;;;;;;;;;;6129712;23;20177;-83
2022/04/01 03:40:11;;;;;;;0.90;0.90;;;;;;;;;;6129094;23;20193;-83
2022/04/01 03:42:40;;;;;;;0.90;0.90;;;;;;;;;;6155188;23;20173;-83
2022/04/01 03:45:09;;;;;;;0.80;0.80;;;;;;;;;;6129488;23;20182;-83
2022/04/01 03:47:40;;;;;;;0.90;0.90;;;;;;;;;;6156021;23;20182;-83
2022/04/01 03:50:10;;;;;;;0.90;0.90;;;;;;;;;;6131595;23;20256;-83
2022/04/01 03:52:39;;;;;;;0.80;0.80;;;;;;;;;;6131416;23;20179;-83
2022/04/01 03:55:09;;;;;;;0.80;0.80;;;;;;;;;;6157612;23;20174;-83
2022/04/01 03:57:38;;;;;;;0.90;0.90;;;;;;;;;;6130916;23;20273;-83
2022/04/01 04:00:12;;;;;;;0.90;0.90;;;;;;;;;;6156673;23;20201;-83
2022/04/01 04:02:41;;;;;;;0.90;0.90;;;;;;;;;;6131026;23;20180;-83
2022/04/01 04:05:10;;;;;;;0.90;0.90;;;;;;;;;;6131364;23;20207;-82
2022/04/01 04:07:39;;;;;;;0.90;0.90;;;;;;;;;;6157531;23;20174;-83
2022/04/01 04:10:09;;;;;;;0.80;0.80;;;;;;;;;;6131687;23;20249;-83
2022/04/01 04:12:38;;;;;;;0.90;0.90;;;;;;;;;;6155658;23;20188;-83
2022/04/01 04:15:07;;;;;;;0.80;0.80;;;;;;;;;;6156885;23;20217;-83
2022/04/01 04:17:44;;;;;;;0.90;0.90;;;;;;;;;;6155460;23;20186;-83
2022/04/01 04:20:14;;;;;;;0.90;0.90;;;;;;;;;;6156529;23;20248;-83
2022/04/01 04:22:50;;;;;;;0.90;0.90;;;;;;;;;;6130664;23;20269;-83
2022/04/01 04:25:22;;;;;;;0.90;0.90;;;;;;;;;;6156835;23;20171;-83
2022/04/01 04:27:55;;;;;;;0.80;0.80;;;;;;;;;;6155843;23;20180;-83
2022/04/01 04:30:26;;;;;;;0.80;0.80;;;;;;;;;;6156626;23;20174;-83
2022/04/01 04:32:57;;;;;;;0.80;0.80;;;;;;;;;;6130824;23;20185;-83
2022/04/01 04:35:27;;;;;;;0.90;0.90;;;;;;;;;;6156602;23;20176;-84
2022/04/01 04:37:57;;;;;;;0.90;0.90;;;;;;;;;;6156758;23;20180;-82
2022/04/01 04:40:26;;;;;;;0.90;0.90;;;;;;;;;;6130591;23;20202;-82
2022/04/01 04:42:55;;;;;;;0.90;0.90;;;;;;;;;;6130591;23;20182;-83
2022/04/01 04:45:24;;;;;;;0.83;0.83;;;;;;;;;;6155245;23;20255;-83
2022/04/01 04:47:52;;;;;;;0.90;0.90;;;;;;;;;;6156955;23;20174;-83
2022/04/01 04:50:23;;;;;;;0.87;0.87;;;;;;;;;;6156840;23;20177;-83
2022/04/01 04:52:53;;;;;;;0.83;0.83;;;;;;;;;;6156741;23;20170;-82
2022/04/01 04:55:22;;;;;;;0.90;0.90;;;;;;;;;;6155310;23;20180;-82
2022/04/01 04:57:51;;;;;;;0.90;0.90;;;;;;;;;;6154450;23;20174;-83
2022/04/01 05:00:20;;;;;;;0.90;0.90;;;;;;;;;;6155179;23;20206;-83
2022/04/01 05:02:58;;;;;;;0.90;0.90;;;;;;;;;;6155102;23;20267;-83
2022/04/01 05:05:29;;;;;;;1.10;1.10;;;;;;;;;;6156249;23;20177;-83
2022/04/01 05:08:02;;;;;;;0.90;0.90;;;;;;;;;;6130197;23;20268;-83
2022/04/01 05:10:35;;;;;;;0.80;0.80;;;;;;;;;;6154918;23;20177;-83
2022/04/01 05:13:08;;;;;;;0.90;0.90;;;;;;;;;;6155002;23;20177;-83
2022/04/01 05:15:39;;;;;;;0.70;0.70;;;;;;;;;;6154656;23;20239;-84
2022/04/01 05:18:12;;;;;;;0.83;0.83;;;;;;;;;;6130554;23;20186;-84
2022/04/01 05:20:55;;;;;;;0.90;0.90;;;;;;;;;;6130586;23;20217;-85
2022/04/01 05:23:27;;;;;;;0.90;0.90;;;;;;;;;;6156811;23;20184;-84
2022/04/01 05:25:58;;;;;;;0.90;0.90;;;;;;;;;;6155496;23;20204;-84
2022/04/01 05:28:31;;;;;;;0.80;0.80;;;;;;;;;;6156082;23;20175;-85
2022/04/01 05:31:04;;;;;;;0.80;0.80;;;;;;;;;;6129953;23;20178;-84
2022/04/01 05:33:40;;;;;;;0.80;0.80;;;;;;;;;;6130601;23;20179;-84
2022/04/01 05:36:11;;;;;;;0.80;0.80;;;;;;;;;;6130485;23;20178;-84
2022/04/01 05:38:40;;;;;;;0.90;0.90;;;;;;;;;;6155868;23;20179;-84
2022/04/01 05:41:10;;;;;;;1.00;1.00;;;;;;;;;;6130464;23;20201;-85
2022/04/01 05:43:39;;;;;;;0.80;0.80;;;;;;;;;;6154987;23;20228;-84
2022/04/01 05:46:08;;;;;;;0.90;0.90;;;;;;;;;;6130901;23;20177;-85
2022/04/01 05:48:38;;;;;;;2.00;2.00;;;;;;;;;;6156738;23;20181;-85
2022/04/01 05:51:07;;;;;;;0.90;0.90;;;;;;;;;;6156152;23;20171;-85
2022/04/01 05:53:38;;;;;;;0.83;0.83;;;;;;;;;;6130234;23;20258;-86
2022/04/01 05:56:09;;;;;;;0.80;0.80;;;;;;;;;;6129903;23;20204;-86
2022/04/01 05:58:38;;;;;;;0.90;0.90;;;;;;;;;;6130175;23;20182;-85
2022/04/01 06:01:13;;;;;;;0.80;0.80;;;;;;;;;;6155833;23;20202;-84
2022/04/01 06:03:49;;;;;;;0.90;0.90;;;;;;;;;;6130110;23;20195;-84
2022/04/01 06:06:22;;;;;;;0.90;0.90;;;;;;;;;;6156095;23;20193;-85
2022/04/01 06:08:58;;;;;;;3.83;3.10;;;;;;;;;;6155689;23;20189;-85
2022/04/01 06:11:35;;;;;;;3.50;2.63;;;;;;;;;;6130117;23;20214;-84
2022/04/01 06:14:08;;;;;;;2.87;2.40;;;;;;;;;;6130013;23;20178;-84
2022/04/01 06:16:41;;;;;;;3.53;2.67;;;;;;;;;;6130047;23;20230;-84
2022/04/01 06:19:16;;;;;;;2.60;1.83;;;;;;;;;;6154650;23;20183;-84
2022/04/01 06:21:48;;;;;;;2.97;2.33;;;;;;;;;;6129738;23;20202;-84
2022/04/01 06:24:29;;;;;;;2.37;2.17;;;;;;;;;;6154411;23;20184;-84
2022/04/01 06:27:00;;;;;;;1.93;1.70;;;;;;;;;;6130276;23;20217;-84
2022/04/01 06:29:38;;;;;;;2.37;2.17;;;;;;;;;;6129877;23;20207;-85
2022/04/01 06:32:08;;;;;;;2.43;2.23;;;;;;;;;;6130213;23;20171;-83
2022/04/01 06:34:51;;;;;;;2.70;2.50;;;;;;;;;;6129664;23;20207;-85
2022/04/01 06:37:23;;;;;;;1.60;1.50;;;;;;;;;;6129817;23;20182;-85
2022/04/01 06:40:02;;;;;;;3.63;2.10;;;;;;;;;;6130062;23;20266;-85
2022/04/01 06:42:32;;;;;;;2.47;2.27;;;;;;;;;;6154275;23;20195;-85
2022/04/01 06:45:13;;;;;;;1.90;1.73;;;;;;;;;;6125727;23;20282;-84
2022/04/01 06:50:24;;;;;;;3.63;2.30;;;;;;;;;;6149361;23;20272;-87
2022/04/01 06:52:53;;;;;;;1.67;1.57;;;;;;;;;;6154076;23;20183;-85
2022/04/01 06:55:24;;;;;;;1.80;1.53;;;;;;;;;;6152498;23;20180;-85
2022/04/01 06:57:52;;;;;;;3.93;1.50;;;;;;;;;;6153169;23;20180;-84
2022/04/01 07:00:21;;;;;;;2.20;2.10;;;;;;;;;;6153017;23;20254;-86
2022/04/01 07:02:50;;;;;;;1.60;1.50;;;;;;;;;;6128362;23;20196;-85
2022/04/01 07:05:18;;;;;;;1.70;1.60;;;;;;;;;;6153472;23;20183;-85
2022/04/01 07:07:47;;;;;;;1.97;1.87;;;;;;;;;;6127704;23;20187;-86
2022/04/01 07:10:15;;;;;;;2.33;2.13;;;;;;;;;;6152868;23;20180;-87
2022/04/01 07:12:45;;;;;;;2.33;1.97;;;;;;;;;;6128765;23;20175;-87
2022/04/01 07:15:14;;;;;;;3.70;1.97;;;;;;;;;;6140644;23;20214;-87
2022/04/01 07:17:43;;;;;;;1.80;1.63;;;;;;;;;;6157972;23;20175;-88
2022/04/01 07:20:12;;;;;;;6.20;2.27;;;;;;;;;;6158241;23;20171;-87
2022/04/01 07:22:56;;;;;;;2.47;2.03;;;;;;;;;;6182723;23;20191;-86
2022/04/01 07:25:25;;;;;;;1.83;1.70;;;;;;;;;;6157680;23;20174;-87
2022/04/01 07:27:55;;;;;;;2.83;1.97;;;;;;;;;;6184180;23;20202;-84
2022/04/01 07:30:24;;;;;;;1.80;1.70;;;;;;;;;;6182131;23;20190;-84
2022/04/01 07:32:54;;;;;;;2.67;2.03;;;;;;;;;;6183362;23;20191;-80
2022/04/01 07:35:23;;;;;;;2.63;2.43;;;;;;;;;;6157214;23;20184;-85
2022/04/01 07:37:52;;;;;;;2.70;2.00;;;;;;;;;;6158502;23;20183;-86
2022/04/01 07:40:22;;;;;;;2.80;2.00;;;;;;;;;;6157495;23;20229;-84
2022/04/01 07:42:51;;;;;;;2.03;1.90;;;;;;;;;;6181721;23;20203;-84
2022/04/01 07:45:21;;;;;;;4.03;2.13;;;;;;;;;;6156777;23;20190;-85
2022/04/01 07:47:50;;;;;;;3.53;2.20;;;;;;;;;;6157641;23;20265;-87
2022/04/01 07:50:20;;;;;;;3.57;2.30;;;;;;;;;;6181928;23;20214;-86
2022/04/01 07:52:48;;;;;;;2.80;2.60;;;;;;;;;;6156367;23;20209;-86
2022/04/01 07:55:18;;;;;;;4.10;1.97;;;;;;;;;;6157351;23;20175;-86
2022/04/01 07:57:47;;;;;;;2.63;1.93;;;;;;;;;;6157568;23;20201;-87
2022/04/01 08:00:26;;;;;;;2.43;2.00;;;;;;;;;;6157797;23;20178;-87
2022/04/01 08:02:57;;;;;;;2.07;1.70;;;;;;;;;;6157100;23;20195;-86
2022/04/01 08:05:26;;;;;;;4.17;2.20;;;;;;;;;;6157618;23;20175;-87
2022/04/01 08:07:54;;;;;;;2.60;2.20;;;;;;;;;;6157420;23;20198;-85
2022/04/01 08:10:23;;;;;;;2.93;2.10;;;;;;;;;;6157610;23;20167;-86
2022/04/01 08:12:51;;;;;;;2.43;2.23;;;;;;;;;;6157086;23;20258;-85
2022/04/01 08:15:21;;;;;;;2.10;1.83;;;;;;;;;;6181990;23;20207;-85
2022/04/01 08:17:55;;;;;;;2.73;2.53;;;;;;;;;;6182829;23;20195;-86
2022/04/01 08:20:24;;;;;;;2.47;2.27;;;;;;;;;;6183222;23;20282;-86
2022/04/01 08:22:53;;;;;;;5.57;2.53;;;;;;;;;;6182383;23;20198;-86
2022/04/01 08:25:21;;;;;;;1.80;1.70;;;;;;;;;;6156955;23;20184;-85
2022/04/01 08:27:58;;;;;;;4.53;2.13;;;;;;;;;;6156971;23;20183;-86
2022/04/01 08:30:30;;;;;;;1.80;1.70;;;;;;;;;;6157393;23;20186;-86
2022/04/01 08:33:07;;;;;;;1.70;1.60;;;;;;;;;;6182660;23;20202;-86
2022/04/01 08:35:36;;;;;;;2.13;2.03;;;;;;;;;;6158669;23;20202;-86
2022/04/01 08:38:04;;;;;;;4.73;2.47;;;;;;;;;;6159829;23;20202;-85
2022/04/01 08:40:33;;;;;;;2.80;2.17;;;;;;;;;;6183719;23;20179;-86
2022/04/01 08:43:02;;;;;;;3.83;2.33;;;;;;;;;;6157837;23;20199;-85
2022/04/01 08:45:33;;;;;;;3.77;1.80;;;;;;;;;;6157625;23;20265;-86
2022/04/01 08:48:06;;;;;;;3.10;1.90;;;;;;;;;;6183431;23;20176;-85
2022/04/01 08:50:35;;;;;;;3.27;2.00;;;;;;;;;;6183839;23;20179;-83
2022/04/01 08:53:04;;;;;;;2.20;2.00;;;;;;;;;;6183127;23;20171;-84
2022/04/01 08:55:33;;;;;;;1.77;1.53;;;;;;;;;;6185642;23;20230;-82
2022/04/01 08:58:01;;;;;;;2.10;2.00;;;;;;;;;;6183166;23;20198;-84
2022/04/01 09:00:37;;;;;;;2.80;2.23;;;;;;;;;;6181868;23;20186;-84
2022/04/01 09:03:08;;;;;;;2.23;1.90;;;;;;;;;;6158094;23;20195;-85
2022/04/01 09:05:37;;;;;;;3.10;2.27;;;;;;;;;;6158266;23;20258;-85
2022/04/01 09:08:07;;;;;;;1.70;1.60;;;;;;;;;;6184069;23;20175;-84
2022/04/01 09:10:51;;;;;;;1.77;1.67;;;;;;;;;;6182676;23;20185;-83
2022/04/01 09:13:20;;;;;;;2.53;2.33;;;;;;;;;;6182782;23;20183;-84
2022/04/01 09:15:49;;;;;;;2.90;1.90;;;;;;;;;;6162322;23;20278;-84
2022/04/01 09:18:32;;;;;;;5.23;2.77;;;;;;;;;;6128591;23;20211;-83
2022/04/01 09:21:05;;;;;;;3.33;1.97;;;;;;;;;;6129447;23;20180;-84
2022/04/01 09:23:34;;;;;;;4.03;1.90;;;;;;;;;;6152343;23;20199;-85
2022/04/01 09:26:03;;;;;;;2.90;2.20;;;;;;;;;;6154144;23;20176;-85
2022/04/01 09:28:33;;;;;;;3.67;2.07;;;;;;;;;;6153118;23;20207;-86
2022/04/01 09:31:02;;;;;;;3.17;1.83;;;;;;;;;;6153593;23;20206;-85
2022/04/01 09:33:52;;;;;;;2.03;1.93;;;;;;;;;;6153164;23;20168;-86
2022/04/01 09:36:24;;;;;;;3.30;2.03;;;;;;;;;;6154209;23;20202;-86
2022/04/01 09:38:56;;;;;;;3.43;3.10;;;;;;;;;;6129435;23;20180;-86
2022/04/01 09:41:31;;;;;;;2.63;2.30;;;;;;;;;;6129246;23;20234;-86
2022/04/01 09:44:23;;;;;;;3.57;2.10;;;;;;;;;;6152872;23;20196;-84
2022/04/01 09:46:56;;;;;;;4.73;2.37;;;;;;;;;;6153734;23;20187;-86
2022/04/01 09:49:36;;;;;;;2.53;2.00;;;;;;;;;;6129518;23;20187;-87
2022/04/01 09:52:09;;;;;;;6.73;2.83;;;;;;;;;;6153403;23;20175;-84
2022/04/01 09:54:50;;;;;;;4.07;2.00;;;;;;;;;;6128595;23;20175;-86
2022/04/01 09:57:19;;;;;;;2.10;1.83;;;;;;;;;;6153981;23;20198;-87
2022/04/01 09:59:49;;;;;;;2.73;2.53;;;;;;;;;;6154132;23;20179;-85
2022/04/01 10:02:18;;;;;;;3.97;2.30;;;;;;;;;;6153399;23;20177;-82
2022/04/01 10:04:46;;;;;;;3.17;1.97;;;;;;;;;;6153174;23;20203;-85
2022/04/01 10:07:18;;;;;;;2.30;2.00;;;;;;;;;;6153605;23;20175;-85
2022/04/01 10:09:51;;;;;;;6.10;2.27;;;;;;;;;;6128575;23;20172;-85
2022/04/01 10:12:31;;;;;;;4.23;2.70;;;;;;;;;;6152254;23;20266;-85
2022/04/01 10:15:01;;;;;;;2.40;1.90;;;;;;;;;;6152423;23;20203;-85
2022/04/01 10:17:51;;;;;;;2.43;2.20;;;;;;;;;;6152850;23;20175;-85
2022/04/01 10:20:21;;;;;;;2.50;2.30;;;;;;;;;;6152920;23;20180;-84
2022/04/01 10:22:53;;;;;;;2.93;2.63;;;;;;;;;;6128219;23;20230;-86
2022/04/01 10:25:29;;;;;;;2.90;1.97;;;;;;;;;;6152576;23;20180;-85
2022/04/01 10:28:03;;;;;;;3.00;2.60;;;;;;;;;;6151759;23;20206;-86
2022/04/01 10:30:32;;;;;;;2.83;2.63;;;;;;;;;;6152970;23;20183;-85
2022/04/01 10:33:01;;;;;;;3.93;2.00;;;;;;;;;;6127507;23;20207;-85
2022/04/01 10:35:31;;;;;;;3.40;2.37;;;;;;;;;;6153582;23;20180;-83
2022/04/01 10:38:15;;;;;;;2.60;2.17;;;;;;;;;;6129650;23;20176;-82
2022/04/01 10:40:49;;;;;;;2.33;2.10;;;;;;;;;;6152805;23;20176;-84
2022/04/01 10:43:19;;;;;;;2.80;2.37;;;;;;;;;;6128573;23;20171;-84
2022/04/01 10:46:03;;;;;;;2.17;1.90;;;;;;;;;;6152928;23;20262;-83
2022/04/01 10:54:33;;;;;;;8.17;2.70;;;;;;;;;;6108218;23;20268;-85
2022/04/01 10:57:07;;;;;;;2.83;2.00;;;;;;;;;;6154002;23;20175;-84
2022/04/01 10:59:39;;;;;;;3.90;2.50;;;;;;;;;;6128855;23;20180;-85
2022/04/01 11:02:08;;;;;;;2.37;2.10;;;;;;;;;;6128063;23;20184;-85
2022/04/01 11:04:39;;;;;;;3.57;2.00;;;;;;;;;;6127329;23;20280;-85
2022/04/01 11:07:09;;;;;;;1.90;1.80;;;;;;;;;;6153216;23;20180;-85
2022/04/01 11:09:39;;;;;;;5.70;1.70;;;;;;;;;;6127388;23;20180;-85
2022/04/01 11:12:29;;;;;;;3.17;1.90;;;;;;;;;;6154012;23;20172;-85
2022/04/01 11:15:25;;;;;;;2.50;2.30;;;;;;;;;;6161388;23;20199;-85
2022/04/01 11:18:04;;;;;;;3.43;2.10;;;;;;;;;;6157888;23;20182;-86
2022/04/01 11:20:35;;;;;;;5.03;2.57;;;;;;;;;;6158024;23;20229;-85
2022/04/01 11:23:06;;;;;;;2.73;2.23;;;;;;;;;;6157520;23;20203;-86
2022/04/01 11:26:02;;;;;;;3.07;2.00;;;;;;;;;;6182230;23;20248;-85
2022/04/01 11:28:39;;;;;;;3.10;2.70;;;;;;;;;;6156893;23;20172;-85
2022/04/01 11:31:12;;;;;;;2.80;2.00;;;;;;;;;;6182671;23;20175;-86
2022/04/01 11:33:56;;;;;;;1.80;1.57;;;;;;;;;;6158416;23;20175;-86
2022/04/01 11:36:27;;;;;;;4.03;2.40;;;;;;;;;;6182524;23;20198;-84
2022/04/01 11:38:56;;;;;;;1.80;1.70;;;;;;;;;;6157977;23;20186;-84
2022/04/01 11:41:30;;;;;;;2.70;2.03;;;;;;;;;;6182224;23;20269;-86
2022/04/01 11:44:00;;;;;;;1.70;1.60;;;;;;;;;;6156979;23;20195;-86
2022/04/01 11:46:28;;;;;;;2.87;1.70;;;;;;;;;;6181986;23;20186;-85
2022/04/01 11:49:03;;;;;;;2.33;1.80;;;;;;;;;;6157219;23;20265;-85
2022/04/01 11:51:34;;;;;;;2.17;1.97;;;;;;;;;;6158613;23;20175;-84
2022/04/01 11:54:03;;;;;;;2.00;1.80;;;;;;;;;;6158384;23;20241;-85
2022/04/01 11:56:32;;;;;;;2.03;1.90;;;;;;;;;;6157677;23;20273;-83
2022/04/01 11:59:03;;;;;;;2.20;2.00;;;;;;;;;;6156687;23;20338;-86
2022/04/01 12:01:32;;;;;;;2.23;2.03;;;;;;;;;;6157540;23;20185;-86
2022/04/01 12:04:07;;;;;;;2.00;1.80;;;;;;;;;;6156139;23;20266;-87
2022/04/01 12:09:29;;;;;;;3.83;2.33;;;;;;;;;;6182843;23;20228;-86
2022/04/01 12:12:01;;;;;;;5.97;1.90;;;;;;;;;;6159240;23;20234;-86
2022/04/01 12:14:33;;;;;;;3.63;2.20;;;;;;;;;;6155260;23;20258;-85
2022/04/01 12:17:05;;;;;;;3.57;1.60;;;;;;;;;;6154673;23;20203;-85
2022/04/01 12:19:33;;;;;;;2.43;2.23;;;;;;;;;;6154993;23;20177;-85
2022/04/01 12:22:02;;;;;;;2.17;1.67;;;;;;;;;;6154914;23;20258;-87
2022/04/01 12:24:32;;;;;;;2.93;1.93;;;;;;;;;;6129458;23;20192;-87
2022/04/01 12:27:01;;;;;;;2.43;2.23;;;;;;;;;;6154601;23;20180;-85
2022/04/01 12:29:31;;;;;;;1.90;1.80;;;;;;;;;;6128923;23;20223;-87
2022/04/01 12:32:02;;;;;;;2.10;1.87;;;;;;;;;;6153112;23;20188;-88
2022/04/01 12:34:31;;;;;;;1.93;1.77;;;;;;;;;;6130114;23;20180;-85
2022/04/01 12:37:01;;;;;;;3.20;2.10;;;;;;;;;;6128852;23;20185;-86
2022/04/01 12:39:32;;;;;;;3.70;1.63;;;;;;;;;;6152682;23;20177;-85
2022/04/01 12:42:01;;;;;;;3.37;2.10;;;;;;;;;;6154334;23;20176;-84
2022/04/01 12:44:32;;;;;;;3.67;2.27;;;;;;;;;;6129570;23;20209;-84
2022/04/01 12:47:03;;;;;;;1.50;1.40;;;;;;;;;;6154357;23;20255;-85
2022/04/01 12:49:33;;;;;;;2.10;1.90;;;;;;;;;;6129209;23;20176;-85
2022/04/01 12:52:03;;;;;;;1.73;1.60;;;;;;;;;;6154693;23;20180;-85
2022/04/01 12:54:33;;;;;;;7.43;2.67;;;;;;;;;;6129597;23;20231;-84
2022/04/01 12:57:03;;;;;;;2.03;1.83;;;;;;;;;;6153733;23;20207;-85
2022/04/01 12:59:37;;;;;;;5.17;2.07;;;;;;;;;;6154130;23;20259;-84
2022/04/01 13:02:06;;;;;;;1.80;1.70;;;;;;;;;;6129510;23;20176;-85
2022/04/01 13:04:42;;;;;;;4.30;1.70;;;;;;;;;;6154103;23;20196;-85
2022/04/01 13:07:12;;;;;;;2.57;1.70;;;;;;;;;;6130058;23;20212;-84
2022/04/01 13:09:45;;;;;;;1.70;1.60;;;;;;;;;;6154188;23;20180;-88
2022/04/01 13:12:13;;;;;;;4.63;1.97;;;;;;;;;;6129473;23;20176;-88
2022/04/01 13:14:43;;;;;;;1.90;1.77;;;;;;;;;;6154269;23;20223;-85
2022/04/01 13:17:16;;;;;;;3.07;2.00;;;;;;;;;;6154778;23;20179;-87
2022/04/01 13:19:47;;;;;;;1.63;1.53;;;;;;;;;;6154099;23;20185;-88
2022/04/01 13:22:28;;;;;;;2.27;1.97;;;;;;;;;;6130362;23;20188;-88
2022/04/01 13:25:15;;;;;;;3.37;1.90;;;;;;;;;;6129750;23;20195;-84
2022/04/01 13:27:47;;;;;;;5.57;2.30;;;;;;;;;;6154250;23;20232;-86
2022/04/01 13:30:21;;;;;;;2.43;2.17;;;;;;;;;;6155355;23;20187;-87
2022/04/01 13:32:49;;;;;;;1.60;1.50;;;;;;;;;;6155019;23;20180;-87
2022/04/01 13:35:18;;;;;;;4.43;2.30;;;;;;;;;;6155019;23;20177;-86
2022/04/01 13:37:47;;;;;;;3.50;2.43;;;;;;;;;;6154701;23;20179;-86
2022/04/01 13:40:18;;;;;;;2.77;1.93;;;;;;;;;;6153464;23;20181;-86
2022/04/01 13:42:47;;;;;;;1.97;1.70;;;;;;;;;;6155297;23;20184;-86
2022/04/01 13:45:16;;;;;;;2.10;1.90;;;;;;;;;;6153811;23;20200;-86
2022/04/01 13:47:46;;;;;;;6.10;2.40;;;;;;;;;;6129750;23;20259;-85
2022/04/01 13:50:15;;;;;;;4.73;2.23;;;;;;;;;;6154023;23;20180;-85
2022/04/01 13:52:43;;;;;;;3.47;2.00;;;;;;;;;;6154456;23;20300;-86
2022/04/01 13:55:12;;;;;;;2.10;1.50;;;;;;;;;;6155751;23;20168;-86
2022/04/01 13:57:40;;;;;;;2.33;2.00;;;;;;;;;;6130168;23;20181;-85
2022/04/01 14:00:10;;;;;;;1.63;1.53;;;;;;;;;;6153867;23;20203;-84
2022/04/01 14:02:40;;;;;;;1.93;1.83;;;;;;;;;;6130140;23;20247;-87
2022/04/01 14:05:13;;;;;;;1.93;1.73;;;;;;;;;;6153250;23;20278;-87
2022/04/01 14:07:42;;;;;;;2.77;1.90;;;;;;;;;;6129331;23;20184;-87
2022/04/01 14:10:12;;;;;;;3.43;1.90;;;;;;;;;;6152401;23;20187;-85
2022/04/01 14:12:42;;;;;;;7.90;2.47;;;;;;;;;;6130235;23;20176;-85
2022/04/01 14:15:11;;;;;;;3.73;2.00;;;;;;;;;;6130151;23;20232;-86
2022/04/01 14:17:40;;;;;;;2.43;1.50;;;;;;;;;;6128932;23;20204;-85
2022/04/01 14:20:10;;;;;;;1.67;1.57;;;;;;;;;;6128642;23;20177;-84
2022/04/01 14:22:40;;;;;;;4.20;2.13;;;;;;;;;;6129551;23;20200;-84
2022/04/01 14:25:09;;;;;;;2.40;1.77;;;;;;;;;;6129233;23;20188;-85
2022/04/01 14:27:38;;;;;;;5.97;2.07;;;;;;;;;;6129705;23;20266;-85
2022/04/01 14:30:19;;;;;;;2.40;1.90;;;;;;;;;;6155245;23;20199;-84
2022/04/01 14:32:48;;;;;;;1.90;1.73;;;;;;;;;;6127424;23;20179;-84
2022/04/01 14:35:17;;;;;;;4.20;1.87;;;;;;;;;;6128793;23;20181;-84
2022/04/01 14:37:47;;;;;;;2.00;1.40;;;;;;;;;;6127653;23;20180;-85
2022/04/01 14:40:16;;;;;;;1.50;1.40;;;;;;;;;;6154269;23;20203;-84
2022/04/01 14:42:45;;;;;;;2.17;1.97;;;;;;;;;;6129908;23;20187;-84
2022/04/01 14:45:14;;;;;;;1.70;1.60;;;;;;;;;;6154981;23;20175;-84
2022/04/01 14:47:42;;;;;;;1.60;1.33;;;;;;;;;;6127488;23;20181;-85
2022/04/01 14:50:11;;;;;;;1.67;1.57;;;;;;;;;;6129148;23;20262;-85
2022/04/01 14:52:40;;;;;;;1.73;1.60;;;;;;;;;;6153883;23;20204;-84
2022/04/01 14:55:11;;;;;;;1.37;1.37;;;;;;;;;;6127576;23;20184;-84
2022/04/01 14:57:39;;;;;;;3.87;2.00;;;;;;;;;;6128339;23;20203;-85
2022/04/01 15:00:09;;;;;;;1.53;1.40;;;;;;;;;;6127319;23;20183;-87
2022/04/01 15:02:38;;;;;;;1.67;1.57;;;;;;;;;;6153275;23;20186;-84
2022/04/01 15:05:13;;;;;;;1.67;1.50;;;;;;;;;;6128103;23;20200;-84
2022/04/01 15:07:42;;;;;;;1.93;1.70;;;;;;;;;;6127373;23;20207;-85
2022/04/01 15:10:13;;;;;;;1.97;1.80;;;;;;;;;;6154555;23;20172;-84
2022/04/01 15:12:42;;;;;;;2.10;1.53;;;;;;;;;;6129278;23;20183;-84
2022/04/01 15:15:17;;;;;;;2.33;1.60;;;;;;;;;;6141526;23;20215;-85
2022/04/01 15:17:46;;;;;;;1.90;1.50;;;;;;;;;;6158544;23;20183;-85
2022/04/01 15:20:15;;;;;;;2.33;2.20;;;;;;;;;;6183011;23;20221;-84
2022/04/01 15:22:46;;;;;;;2.00;1.43;;;;;;;;;;6157900;23;20184;-85